Terminal Aerodrome Forecast
Issued by NWS

Home | Current Version | Previous Version | Text Only | Print | Product List | Glossary On
Versions: 1 2 3 4 5 6 7 8 9 10 11 12 13
687
FTUS41 KCAR 021131
TAFPQI
TAF
KPQI 021131Z 0212/0312 15006KT P6SM VCSH OVC050
     FM021500 15006KT 5SM -RA BR OVC025
     FM022000 12006KT 3SM -RA BR OVC015
     FM030200 07006KT 3SM -RA BR OVC008
     FM030600 36006KT P6SM VCSH OVC004=

USA.gov is the U.S. government's official web portal to all federal, state and local government web resources and services.